Arbon, Idaho
Current Conditions -  °F | °C
As of 1:53 PM on Thursday 23 Oct 2014 (Local Time) from KPIH Reporting Station
Clear Clear  
Wind Chill: 64°   Ceiling: Unl
Heat Index: 64°   Visibility: 10mi
Dew Point: 29°   Wind: 16mph
Humidity: 27%   Direction: 240°WSW
Pressure: 30.11"   Gusts: NA
Location:  42.46°N, 112.57°W
Report Text: KPIH 231953Z 24014KT 10SM CLR 18/M02 A3011 RMK AO2 SLP169 T01781017
Loading
Personal Weather Stations






























Interactive Weather Map
Tropical Storm Tracking
New forecast layout! Learn more

10-Day Weather Forecast

Advertisements
Track Severe Weather on mobile